createdAt,value
2022-11-06T00:01:12.194Z,28.50
2022-11-06T00:03:39.529Z,27.20
2022-11-06T00:06:29.935Z,28.60
2022-11-06T00:08:59.257Z,24.80
2022-11-06T00:11:26.073Z,21.10
2022-11-06T00:13:52.580Z,20.70
2022-11-06T00:16:19.921Z,23.00
2022-11-06T00:18:47.162Z,21.60
2022-11-06T00:21:22.399Z,20.50
2022-11-06T00:23:50.544Z,27.00
2022-11-06T00:26:20.093Z,22.80
2022-11-06T00:28:47.658Z,21.60
2022-11-06T00:31:17.158Z,21.50
2022-11-06T00:33:44.075Z,21.40
2022-11-06T00:36:15.045Z,19.60
2022-11-06T00:38:41.981Z,19.30
2022-11-06T00:41:11.263Z,18.20
2022-11-06T00:43:38.529Z,18.00
2022-11-06T00:46:13.346Z,19.20
2022-11-06T00:48:41.039Z,18.70
2022-11-06T00:51:10.848Z,19.20
2022-11-06T00:53:37.634Z,20.40
2022-11-06T00:56:13.563Z,20.70
2022-11-06T00:58:40.473Z,21.40
2022-11-06T01:01:28.344Z,20.70
2022-11-06T01:03:57.911Z,20.10
2022-11-06T01:06:28.542Z,21.90
2022-11-06T01:08:56.313Z,23.20
2022-11-06T01:11:25.528Z,21.80
2022-11-06T01:13:54.652Z,22.30
2022-11-06T01:16:22.176Z,21.00
2022-11-06T01:18:50.234Z,23.10
2022-11-06T01:21:28.900Z,21.00
2022-11-06T01:24:01.267Z,25.30
2022-11-06T01:26:38.446Z,24.20
2022-11-06T01:29:08.782Z,23.30
2022-11-06T01:31:35.919Z,22.70
2022-11-06T01:34:03.247Z,20.80
2022-11-06T01:36:30.516Z,20.40
2022-11-06T01:39:00.005Z,20.20
2022-11-06T01:41:32.793Z,19.40
2022-11-06T01:44:04.300Z,19.60
2022-11-06T01:46:36.295Z,20.00
2022-11-06T01:49:10.040Z,19.20
2022-11-06T01:51:41.460Z,20.50
2022-11-06T01:54:09.312Z,20.10
2022-11-06T01:56:37.219Z,19.70
2022-11-06T01:59:05.861Z,25.70
2022-11-06T02:01:33.269Z,26.50
2022-11-06T02:04:15.132Z,24.70
2022-11-06T02:06:41.853Z,22.80
2022-11-06T02:09:10.867Z,23.00
2022-11-06T02:11:42.661Z,23.60
2022-11-06T02:14:19.190Z,22.50
2022-11-06T02:16:54.130Z,20.90
2022-11-06T02:19:39.916Z,20.70
2022-11-06T02:27:26.587Z,18.20
2022-11-06T02:30:02.006Z,18.00
2022-11-06T02:32:28.437Z,18.30
2022-11-06T02:34:58.455Z,17.80
2022-11-06T02:37:29.745Z,17.50
2022-11-06T02:39:59.748Z,18.10
2022-11-06T02:42:29.054Z,17.60
2022-11-06T02:44:57.586Z,17.30
2022-11-06T02:47:29.421Z,17.00
2022-11-06T02:50:05.370Z,16.90
2022-11-06T02:52:40.049Z,17.40
2022-11-06T02:55:17.270Z,18.40
2022-11-06T02:57:51.392Z,20.20
2022-11-06T03:00:18.602Z,18.00
2022-11-06T03:02:52.954Z,16.60
2022-11-06T03:05:27.241Z,17.50
2022-11-06T03:08:03.708Z,17.60
2022-11-06T03:10:39.175Z,16.40
2022-11-06T03:13:35.220Z,17.70
2022-11-06T03:16:13.697Z,19.50
2022-11-06T03:18:54.058Z,19.10
2022-11-06T03:21:37.961Z,16.70
2022-11-06T03:24:13.625Z,16.90
2022-11-06T03:26:45.507Z,16.80
2022-11-06T03:29:15.988Z,15.20
2022-11-06T03:31:58.478Z,15.70
2022-11-06T03:35:00.312Z,16.40
2022-11-06T03:37:34.157Z,16.40
2022-11-06T03:40:05.574Z,16.60
2022-11-06T03:42:32.216Z,16.30
2022-11-06T03:45:12.703Z,16.60
2022-11-06T03:47:59.568Z,16.90
2022-11-06T03:50:38.833Z,17.50
2022-11-06T03:53:12.793Z,17.00
2022-11-06T03:55:46.125Z,18.60
2022-11-06T03:58:20.310Z,16.60
2022-11-06T04:00:48.343Z,16.80
2022-11-06T04:03:35.332Z,15.10
2022-11-06T04:06:13.338Z,15.50
2022-11-06T04:08:59.416Z,14.50
2022-11-06T04:11:47.847Z,15.20
2022-11-06T04:14:16.265Z,14.50
2022-11-06T04:16:51.437Z,15.90
2022-11-06T04:19:20.221Z,15.50
2022-11-06T04:22:08.567Z,14.90
2022-11-06T04:25:13.602Z,14.20
2022-11-06T04:27:55.128Z,14.70
2022-11-06T04:30:22.396Z,14.40
2022-11-06T04:33:15.797Z,14.30
2022-11-06T04:36:00.650Z,12.90
2022-11-06T04:38:50.868Z,14.00
2022-11-06T04:41:40.131Z,12.80
2022-11-06T04:44:18.846Z,13.30
2022-11-06T04:46:52.024Z,12.40
2022-11-06T04:49:20.774Z,12.40
2022-11-06T04:51:48.448Z,12.60
2022-11-06T04:54:15.627Z,12.10
2022-11-06T04:56:46.090Z,11.40
2022-11-06T04:59:16.936Z,12.00
2022-11-06T05:01:44.517Z,10.70
2022-11-06T05:04:12.145Z,11.50
2022-11-06T05:06:38.580Z,11.10
2022-11-06T05:09:04.995Z,11.00
2022-11-06T05:11:31.871Z,11.60
2022-11-06T05:13:58.325Z,12.70
2022-11-06T05:16:25.000Z,11.90
2022-11-06T05:18:51.472Z,11.70
2022-11-06T05:21:36.616Z,11.60
2022-11-06T05:24:04.067Z,11.90
2022-11-06T05:26:30.713Z,11.70
2022-11-06T05:28:57.344Z,11.50
2022-11-06T05:31:25.288Z,10.90
2022-11-06T05:33:51.809Z,10.30
2022-11-06T05:36:18.383Z,11.20
2022-11-06T05:38:44.810Z,11.20
2022-11-06T05:41:11.257Z,10.20
2022-11-06T05:43:37.993Z,11.00
2022-11-06T05:46:05.042Z,11.10
2022-11-06T05:48:31.471Z,11.90
2022-11-06T05:51:03.602Z,10.40
2022-11-06T05:53:31.452Z,10.00
2022-11-06T05:55:58.077Z,10.50
2022-11-06T05:58:25.048Z,10.40
2022-11-06T06:00:51.453Z,10.90
2022-11-06T06:03:17.962Z,11.00
2022-11-06T06:05:44.395Z,11.20
2022-11-06T06:08:11.031Z,11.70
2022-11-06T06:10:45.006Z,11.20
2022-11-06T06:13:12.810Z,11.20
2022-11-06T06:15:40.473Z,10.50
2022-11-06T06:18:08.546Z,10.50
2022-11-06T06:20:35.491Z,10.50
2022-11-06T06:23:02.847Z,10.80
2022-11-06T06:25:29.937Z,10.50
2022-11-06T06:27:57.556Z,10.20
2022-11-06T06:30:24.688Z,10.70
2022-11-06T06:32:51.736Z,11.00
2022-11-06T06:35:18.286Z,10.00
2022-11-06T06:37:53.759Z,10.60
2022-11-06T06:40:21.277Z,10.10
2022-11-06T06:42:47.691Z,10.40
2022-11-06T06:45:14.192Z,10.50
2022-11-06T06:47:40.912Z,9.90
2022-11-06T06:50:08.057Z,9.90
2022-11-06T06:52:34.517Z,10.90
2022-11-06T06:55:01.028Z,11.00
2022-11-06T06:57:27.410Z,11.10
2022-11-06T07:02:20.419Z,11.50
2022-11-06T07:04:46.962Z,12.10
2022-11-06T07:07:13.503Z,11.10
2022-11-06T07:09:39.887Z,10.90
2022-11-06T07:12:06.611Z,10.80
2022-11-06T07:14:33.075Z,10.80
2022-11-06T07:16:59.572Z,11.30
2022-11-06T07:19:25.992Z,11.80
2022-11-06T07:21:53.179Z,12.60
2022-11-06T07:24:20.539Z,13.00
2022-11-06T07:26:46.969Z,13.00
2022-11-06T07:29:13.953Z,13.30
2022-11-06T07:31:40.416Z,13.20
2022-11-06T07:34:06.938Z,14.10
2022-11-06T07:36:34.804Z,14.70
2022-11-06T07:39:01.443Z,14.80
2022-11-06T07:41:27.978Z,13.50
2022-11-06T07:43:54.413Z,14.80
2022-11-06T07:46:20.848Z,14.50
2022-11-06T07:48:48.102Z,14.30
2022-11-06T07:51:14.839Z,14.00
2022-11-06T07:53:43.350Z,13.30
2022-11-06T07:56:10.221Z,15.80
2022-11-06T07:58:37.213Z,15.80
2022-11-06T08:01:04.256Z,15.10
2022-11-06T08:03:31.422Z,13.60
2022-11-06T08:05:58.953Z,12.00
2022-11-06T08:08:27.556Z,12.00
2022-11-06T08:10:54.502Z,12.20
2022-11-06T08:13:21.041Z,12.90
2022-11-06T08:15:47.587Z,12.90
2022-11-06T08:18:14.318Z,13.00
2022-11-06T08:20:41.061Z,12.00
2022-11-06T08:23:10.469Z,11.90
2022-11-06T08:25:37.667Z,11.50
2022-11-06T08:28:05.025Z,11.80
2022-11-06T08:30:31.932Z,11.70
2022-11-06T08:33:04.820Z,11.40
2022-11-06T08:35:31.547Z,11.60
2022-11-06T08:37:57.971Z,11.40
2022-11-06T08:43:02.102Z,12.40
2022-11-06T08:45:29.253Z,12.60
2022-11-06T08:48:01.379Z,12.20
2022-11-06T08:50:29.107Z,14.20
2022-11-06T08:52:57.362Z,11.70
2022-11-06T08:55:23.899Z,11.50
2022-11-06T08:57:50.335Z,11.30
2022-11-06T09:00:16.866Z,11.20
2022-11-06T09:02:43.301Z,14.90
2022-11-06T09:07:36.244Z,12.40
2022-11-06T09:12:29.389Z,12.60
2022-11-06T09:14:55.810Z,11.30
2022-11-06T09:19:51.103Z,11.20
2022-11-06T09:22:18.051Z,11.00
2022-11-06T09:25:02.687Z,12.00
2022-11-06T09:27:30.457Z,10.70
2022-11-06T09:29:57.258Z,11.70
2022-11-06T09:32:24.162Z,12.00
2022-11-06T09:34:51.005Z,11.90
2022-11-06T09:37:17.382Z,10.70
2022-11-06T09:42:21.183Z,10.20
2022-11-06T09:45:07.517Z,10.40
2022-11-06T09:47:40.764Z,10.20
2022-11-06T09:50:17.074Z,10.00
2022-11-06T09:52:50.263Z,9.80
2022-11-06T09:55:21.941Z,8.50
2022-11-06T09:58:13.977Z,8.70
2022-11-06T10:00:41.130Z,9.10
2022-11-06T10:03:18.035Z,9.10
2022-11-06T10:05:46.881Z,9.10
2022-11-06T10:08:21.858Z,8.40
2022-11-06T10:11:01.912Z,7.20
2022-11-06T10:14:07.634Z,7.40
2022-11-06T10:16:45.839Z,7.10
2022-11-06T10:19:31.149Z,7.40
2022-11-06T10:22:06.859Z,7.80
2022-11-06T10:25:12.289Z,9.30
2022-11-06T10:27:46.921Z,8.80
2022-11-06T10:30:16.928Z,8.50
2022-11-06T10:33:35.070Z,8.30
2022-11-06T10:36:01.559Z,7.80
2022-11-06T10:38:35.386Z,6.80
2022-11-06T10:41:01.928Z,7.30
2022-11-06T10:43:43.352Z,7.80
2022-11-06T10:46:29.286Z,10.40
2022-11-06T10:49:01.773Z,8.00
2022-11-06T10:51:47.045Z,7.30
2022-11-06T10:54:32.473Z,7.00
2022-11-06T10:57:08.384Z,7.20
2022-11-06T10:59:35.227Z,7.20
2022-11-06T11:02:03.321Z,7.00
2022-11-06T11:04:31.984Z,6.50
2022-11-06T11:07:21.419Z,7.60
2022-11-06T11:09:50.877Z,7.30
2022-11-06T11:12:32.317Z,6.60
2022-11-06T11:15:04.877Z,6.70
2022-11-06T11:17:31.303Z,6.50
2022-11-06T11:19:57.798Z,7.00
2022-11-06T11:22:27.655Z,6.20
2022-11-06T11:25:08.432Z,6.30
2022-11-06T11:27:45.879Z,6.30
2022-11-06T11:30:38.469Z,6.70
2022-11-06T11:33:12.880Z,6.60
2022-11-06T11:35:39.687Z,6.50
2022-11-06T11:38:12.841Z,7.50
2022-11-06T11:40:40.209Z,6.10
2022-11-06T11:43:26.405Z,7.10
2022-11-06T11:46:03.144Z,5.80
2022-11-06T11:48:52.096Z,5.80
2022-11-06T11:51:36.239Z,27.50
2022-11-06T11:54:12.032Z,7.90
2022-11-06T11:57:04.198Z,7.30
2022-11-06T11:59:54.550Z,5.90
2022-11-06T12:02:27.941Z,5.20
2022-11-06T12:05:17.487Z,5.80
2022-11-06T12:07:49.328Z,7.50
2022-11-06T12:10:26.878Z,6.00
2022-11-06T12:12:55.152Z,7.30
2022-11-06T12:15:26.689Z,6.40
2022-11-06T12:18:05.207Z,9.00
2022-11-06T12:20:40.104Z,6.30
2022-11-06T12:23:14.349Z,6.60
2022-11-06T12:25:44.665Z,5.50
2022-11-06T12:28:17.973Z,4.90
2022-11-06T12:30:51.081Z,4.90
2022-11-06T12:33:24.622Z,5.30
2022-11-06T12:36:03.288Z,5.10
2022-11-06T12:38:40.689Z,5.00
2022-11-06T12:41:21.309Z,5.30
2022-11-06T12:43:50.683Z,5.80
2022-11-06T12:46:29.043Z,5.30
2022-11-06T12:49:01.597Z,4.90
2022-11-06T12:51:46.933Z,4.80
2022-11-06T12:54:41.400Z,6.90
2022-11-06T12:57:25.751Z,5.40
2022-11-06T13:00:05.936Z,6.50
2022-11-06T13:03:07.743Z,5.20
2022-11-06T13:06:03.300Z,5.40
2022-11-06T13:11:08.360Z,4.70
2022-11-06T13:13:44.728Z,5.30
2022-11-06T13:16:41.171Z,5.30
2022-11-06T13:19:32.870Z,5.10
2022-11-06T13:22:09.628Z,4.60
2022-11-06T13:25:03.568Z,4.90
2022-11-06T13:27:36.174Z,6.90
2022-11-06T13:30:15.381Z,4.70
2022-11-06T13:32:48.520Z,7.90
2022-11-06T13:35:21.209Z,7.60
2022-11-06T13:37:50.663Z,10.80
2022-11-06T13:40:23.263Z,13.90
2022-11-06T13:43:05.836Z,12.40
2022-11-06T13:45:43.092Z,19.80
2022-11-06T13:48:23.609Z,8.70
2022-11-06T13:51:15.679Z,13.30
2022-11-06T13:54:03.892Z,16.80
2022-11-06T13:56:42.479Z,9.60
2022-11-06T13:59:32.787Z,8.20
2022-11-06T14:02:15.784Z,10.90
2022-11-06T14:04:53.932Z,7.50
2022-11-06T14:07:22.296Z,7.10
2022-11-06T14:09:48.995Z,5.90
2022-11-06T14:12:21.284Z,11.50
2022-11-06T14:14:48.972Z,13.20
2022-11-06T14:17:15.320Z,10.70
2022-11-06T14:20:02.092Z,15.40
2022-11-06T14:22:36.842Z,21.40
2022-11-06T14:25:28.471Z,14.30
2022-11-06T14:27:54.846Z,10.70
2022-11-06T14:30:57.646Z,10.40
2022-11-06T14:33:42.539Z,13.80
2022-11-06T14:36:25.620Z,14.10
2022-11-06T14:38:53.331Z,12.50
2022-11-06T14:41:35.128Z,16.20
2022-11-06T14:44:13.510Z,11.60
2022-11-06T14:46:49.745Z,11.30
2022-11-06T14:49:38.226Z,13.20
2022-11-06T14:52:08.583Z,10.50
2022-11-06T14:54:39.895Z,13.00
2022-11-06T14:57:08.639Z,13.70
2022-11-06T14:59:41.060Z,15.20
2022-11-06T15:02:18.669Z,27.30
2022-11-06T15:04:51.954Z,18.60
2022-11-06T15:08:03.298Z,23.90
2022-11-06T15:10:58.889Z,19.80
2022-11-06T15:13:26.903Z,15.30
2022-11-06T15:16:02.899Z,15.60
2022-11-06T15:21:03.403Z,10.70
2022-11-06T15:23:41.588Z,12.00
2022-11-06T15:26:35.468Z,16.50
2022-11-06T15:29:21.413Z,19.70
2022-11-06T15:31:51.836Z,19.40
2022-11-06T15:35:07.833Z,26.90
2022-11-06T15:37:46.729Z,21.60
2022-11-06T15:40:31.878Z,22.60
2022-11-06T15:43:05.278Z,23.20
2022-11-06T15:45:31.989Z,18.40
2022-11-06T15:48:02.429Z,67.40
2022-11-06T15:50:34.663Z,86.70
2022-11-06T15:53:14.335Z,65.00
2022-11-06T15:56:04.611Z,32.60
2022-11-06T15:58:34.516Z,31.90
2022-11-06T16:01:03.289Z,42.80
2022-11-06T16:03:32.232Z,49.30
2022-11-06T16:06:03.317Z,59.50
2022-11-06T16:08:31.609Z,46.80
2022-11-06T16:10:59.527Z,32.40
2022-11-06T16:13:27.455Z,37.10
2022-11-06T16:16:00.566Z,35.90
2022-11-06T16:18:33.034Z,22.40
2022-11-06T16:21:08.660Z,24.30
2022-11-06T16:23:48.041Z,34.90
2022-11-06T16:26:35.783Z,32.50
2022-11-06T16:29:15.735Z,23.20
2022-11-06T16:31:43.147Z,18.20
2022-11-06T16:34:34.842Z,11.70
2022-11-06T16:37:05.065Z,11.40
2022-11-06T16:40:01.025Z,10.60
2022-11-06T16:42:38.357Z,9.20
2022-11-06T16:45:07.590Z,9.30
2022-11-06T16:47:34.219Z,16.20
2022-11-06T16:50:01.595Z,18.40
2022-11-06T16:52:32.456Z,20.10
2022-11-06T16:55:03.575Z,28.80
2022-11-06T16:57:57.540Z,29.50
2022-11-06T17:00:31.269Z,30.60
2022-11-06T17:03:05.089Z,29.30
2022-11-06T17:05:36.365Z,37.80
2022-11-06T17:08:17.931Z,55.70
2022-11-06T17:10:51.855Z,96.60
2022-11-06T17:13:21.062Z,61.90
2022-11-06T17:15:54.693Z,45.50
2022-11-06T17:18:24.922Z,47.10
2022-11-06T17:20:57.173Z,53.50
2022-11-06T17:23:25.824Z,59.30
2022-11-06T17:25:56.142Z,56.20
2022-11-06T17:28:22.643Z,63.40
2022-11-06T17:30:49.480Z,57.40
2022-11-06T17:33:16.237Z,60.40
2022-11-06T17:35:43.098Z,64.50
2022-11-06T17:38:13.237Z,70.20
2022-11-06T17:40:40.999Z,70.60
2022-11-06T17:43:07.859Z,68.10
2022-11-06T17:45:34.331Z,71.70
2022-11-06T17:48:00.765Z,78.90
2022-11-06T17:50:27.356Z,76.20
2022-11-06T17:52:53.867Z,107.70
2022-11-06T17:55:20.402Z,82.10
2022-11-06T17:57:46.858Z,105.00
2022-11-06T18:00:13.873Z,92.10
2022-11-06T18:03:00.386Z,92.20
2022-11-06T18:05:27.612Z,103.60
2022-11-06T18:07:54.047Z,95.00
2022-11-06T18:12:50.681Z,106.20
2022-11-06T18:15:17.650Z,113.70
2022-11-06T18:17:44.083Z,187.70
2022-11-06T18:22:37.564Z,114.50
2022-11-06T18:25:04.722Z,111.00
2022-11-06T18:27:31.251Z,93.40
2022-11-06T18:29:57.687Z,107.10
2022-11-06T18:34:50.400Z,101.80
2022-11-06T18:39:43.269Z,90.50
2022-11-06T18:42:09.853Z,87.80
2022-11-06T18:44:40.658Z,95.60
2022-11-06T18:47:07.202Z,91.60
2022-11-06T18:49:33.868Z,85.30
2022-11-06T18:52:00.317Z,75.50
2022-11-06T18:56:55.215Z,73.70
2022-11-06T18:59:23.153Z,73.40
2022-11-06T19:01:49.841Z,62.90
2022-11-06T19:04:16.912Z,54.20
2022-11-06T19:06:43.510Z,53.00
2022-11-06T19:09:10.047Z,64.30
2022-11-06T19:11:36.509Z,59.20
2022-11-06T19:14:03.172Z,55.60
2022-11-06T19:16:29.594Z,113.70
2022-11-06T19:21:31.080Z,87.90
2022-11-06T19:24:04.603Z,123.90
2022-11-06T19:26:34.647Z,113.70
2022-11-06T19:29:01.371Z,109.80
2022-11-06T19:31:29.685Z,82.00
2022-11-06T19:34:01.243Z,95.90
2022-11-06T19:36:28.939Z,77.10
2022-11-06T19:38:57.777Z,83.10
2022-11-06T19:41:26.134Z,82.60
2022-11-06T19:43:52.576Z,62.10
2022-11-06T19:46:24.159Z,85.80
2022-11-06T19:48:52.469Z,121.40
2022-11-06T19:51:18.997Z,94.20
2022-11-06T19:53:45.474Z,69.20
2022-11-06T19:56:15.812Z,62.20
2022-11-06T19:58:42.347Z,62.60
2022-11-06T20:01:14.777Z,85.00
2022-11-06T20:03:42.233Z,91.30
2022-11-06T20:06:09.944Z,94.10
2022-11-06T20:08:38.116Z,78.30
2022-11-06T20:11:13.610Z,67.50
2022-11-06T20:13:45.723Z,58.60
2022-11-06T20:16:18.919Z,78.50
2022-11-06T20:18:57.267Z,61.80
2022-11-06T20:21:28.511Z,59.40
2022-11-06T20:23:56.696Z,61.90
2022-11-06T20:26:24.691Z,54.10
2022-11-06T20:28:51.578Z,60.00
2022-11-06T20:31:18.968Z,72.50
2022-11-06T20:33:45.780Z,55.90
2022-11-06T20:36:18.741Z,55.40
2022-11-06T20:38:45.837Z,50.30
2022-11-06T20:41:13.924Z,43.60
2022-11-06T20:43:41.432Z,55.70
2022-11-06T20:46:09.512Z,59.20
2022-11-06T20:48:36.558Z,56.60
2022-11-06T20:51:10.196Z,50.50
2022-11-06T20:53:36.799Z,45.00
2022-11-06T20:56:05.780Z,41.60
2022-11-06T20:58:33.101Z,37.80
2022-11-06T21:01:08.026Z,42.20
2022-11-06T21:03:34.615Z,44.30
2022-11-06T21:06:01.566Z,43.80
2022-11-06T21:08:28.610Z,72.50
2022-11-06T21:11:05.771Z,86.60
2022-11-06T21:13:33.952Z,69.50
2022-11-06T21:16:04.332Z,67.30
2022-11-06T21:18:33.625Z,63.30
2022-11-06T21:21:03.195Z,61.00
2022-11-06T21:23:29.741Z,67.70
2022-11-06T21:25:56.176Z,67.20
2022-11-06T21:28:22.928Z,71.70
2022-11-06T21:30:49.454Z,62.60
2022-11-06T21:33:16.381Z,65.20
2022-11-06T21:35:43.446Z,61.70
2022-11-06T21:38:09.897Z,63.50
2022-11-06T21:40:38.890Z,54.40
2022-11-06T21:43:05.719Z,57.00
2022-11-06T21:45:32.485Z,62.90
2022-11-06T21:47:59.045Z,60.50
2022-11-06T21:50:29.876Z,70.20
2022-11-06T21:53:15.580Z,101.10
2022-11-06T21:56:00.158Z,65.00
2022-11-06T21:58:27.228Z,56.80
2022-11-06T22:00:53.662Z,53.20
2022-11-06T22:03:20.300Z,50.80
2022-11-06T22:05:46.679Z,49.90
2022-11-06T22:10:40.319Z,45.70
2022-11-06T22:13:06.747Z,43.10
2022-11-06T22:17:59.603Z,38.70
2022-11-06T22:20:26.266Z,37.80
2022-11-06T22:22:52.794Z,34.10
2022-11-06T22:25:19.193Z,39.00
2022-11-06T22:27:45.662Z,59.50
2022-11-06T22:30:12.615Z,59.20
2022-11-06T22:32:39.247Z,73.60
2022-11-06T22:35:05.889Z,73.30
2022-11-06T22:37:32.421Z,62.50
2022-11-06T22:39:58.840Z,88.00
2022-11-06T22:42:25.289Z,57.30
2022-11-06T22:44:52.337Z,52.90
2022-11-06T22:47:18.879Z,56.00
2022-11-06T22:49:45.326Z,57.50
2022-11-06T22:52:11.728Z,67.20
2022-11-06T22:54:38.385Z,76.30
2022-11-06T22:57:05.019Z,62.10
2022-11-06T22:59:31.387Z,160.40
2022-11-06T23:04:24.832Z,87.80
2022-11-06T23:06:51.362Z,76.10
2022-11-06T23:09:17.804Z,84.30
2022-11-06T23:11:46.376Z,78.20
2022-11-06T23:14:13.024Z,67.20
2022-11-06T23:16:58.385Z,67.50
2022-11-06T23:19:26.565Z,70.70
2022-11-06T23:22:13.220Z,84.10
2022-11-06T23:24:39.769Z,86.90
2022-11-06T23:27:06.204Z,79.20
2022-11-06T23:29:32.691Z,74.50
2022-11-06T23:31:59.127Z,74.70
2022-11-06T23:34:25.868Z,68.00
2022-11-06T23:36:52.275Z,84.50
2022-11-06T23:39:18.837Z,74.00
2022-11-06T23:41:45.483Z,76.50
2022-11-06T23:44:33.121Z,75.00
2022-11-06T23:47:00.218Z,67.40
2022-11-06T23:49:26.689Z,65.90
2022-11-06T23:51:53.430Z,70.30
2022-11-06T23:54:20.071Z,67.90
2022-11-06T23:56:46.512Z,71.70
2022-11-06T23:59:13.040Z,187.30
